Time;durP1;ratioP1;P1;durP2;ratioP2;P2;SDS_P1;SDS_P2;PMS_P1;PMS_P2;Temp;Humidity;BMP_temperature;BMP_pressure;BME280_temperature;BME280_humidity;BME280_pressure;Samples;Min_cycle;Max_cycle;Signal;HPM_P1;HPM_P2
2021/07/03 00:09:47;;;;;;;30.30;17.40;;;13.40;99.90;;;;;;20910827;28;20037;-48
2021/07/03 00:19:49;;;;;;;26.20;20.80;;;13.20;99.90;;;;;;20911505;28;20316;-51
2021/07/03 00:29:51;;;;;;;28.23;22.25;;;13.00;99.90;;;;;;20910836;28;20037;-49
2021/07/03 00:39:55;;;;;;;38.40;25.77;;;12.90;99.90;;;;;;20909508;28;20033;-48
2021/07/03 00:49:58;;;;;;;42.97;28.90;;;12.80;99.90;;;;;;20908923;28;20048;-52
2021/07/03 01:00:01;;;;;;;47.95;32.08;;;12.80;99.90;;;;;;20907902;28;20033;-49
2021/07/03 01:10:15;;;;;;;47.42;33.30;;;12.70;99.90;;;;;;20906053;28;20037;-49
2021/07/03 01:20:18;;;;;;;49.05;35.42;;;12.60;99.90;;;;;;20905282;28;20025;-47
2021/07/03 01:30:19;;;;;;;49.42;36.63;;;12.70;99.90;;;;;;20904902;28;20398;-47
2021/07/03 01:40:22;;;;;;;46.20;31.50;;;12.90;99.90;;;;;;20904210;28;20037;-47
2021/07/03 01:50:25;;;;;;;60.13;36.38;;;12.90;99.90;;;;;;20903930;28;20492;-53
2021/07/03 02:00:27;;;;;;;46.65;32.10;;;12.90;99.90;;;;;;20904636;28;20106;-50
2021/07/03 02:10:40;;;;;;;56.88;36.05;;;13.00;99.90;;;;;;20902907;28;20033;-49
2021/07/03 02:20:43;;;;;;;52.35;33.80;;;13.10;99.90;;;;;;20903030;28;20430;-50
2021/07/03 02:30:52;;;;;;;45.33;31.13;;;13.20;99.90;;;;;;20908181;28;20559;-49
2021/07/03 02:40:56;;;;;;;37.78;25.48;;;13.40;99.90;;;;;;20919258;28;20037;-51
2021/07/03 02:50:59;;;;;;;31.42;21.33;;;13.60;99.90;;;;;;20917359;28;20045;-54
2021/07/03 03:01:03;;;;;;;32.25;21.52;;;14.00;99.90;;;;;;20917035;28;20033;-53
2021/07/03 03:11:05;;;;;;;29.10;21.27;;;14.10;99.90;;;;;;20915520;28;20037;-52
2021/07/03 03:21:07;;;;;;;26.20;19.63;;;14.10;99.90;;;;;;20916423;28;20033;-51
2021/07/03 03:31:09;;;;;;;24.55;18.60;;;14.10;99.90;;;;;;20914067;28;20047;-51
2021/07/03 03:41:16;;;;;;;22.00;17.08;;;14.20;99.90;;;;;;20913328;28;20029;-50
2021/07/03 03:51:18;;;;;;;24.98;15.60;;;14.30;99.90;;;;;;20912308;28;20044;-51
2021/07/03 04:01:21;;;;;;;19.10;15.73;;;14.30;99.90;;;;;;20911913;28;20037;-49
2021/07/03 04:11:23;;;;;;;16.77;13.40;;;14.30;99.90;;;;;;20910960;28;20033;-49
2021/07/03 04:21:24;;;;;;;17.05;12.55;;;14.50;99.90;;;;;;20911144;28;20055;-50
2021/07/03 04:31:26;;;;;;;11.90;9.05;;;14.80;99.90;;;;;;20910710;28;20048;-50
2021/07/03 04:41:28;;;;;;;11.07;9.10;;;14.80;99.90;;;;;;20909970;28;20095;-48
2021/07/03 04:51:30;;;;;;;9.23;7.40;;;15.10;99.90;;;;;;20908382;28;20328;-48
2021/07/03 05:01:32;;;;;;;9.15;7.00;;;15.30;99.90;;;;;;20908592;28;20419;-54
2021/07/03 05:11:34;;;;;;;8.65;6.25;;;15.50;99.90;;;;;;20907367;28;20086;-47
2021/07/03 05:21:35;;;;;;;7.43;4.43;;;15.60;99.90;;;;;;20906755;28;20040;-50
2021/07/03 05:31:37;;;;;;;6.18;4.30;;;15.90;99.90;;;;;;20906251;28;20032;-52
2021/07/03 05:41:39;;;;;;;4.90;3.78;;;16.30;99.90;;;;;;20905237;28;20086;-51
2021/07/03 05:51:40;;;;;;;4.35;3.42;;;17.10;99.90;;;;;;20905039;28;20503;-49
2021/07/03 06:01:42;;;;;;;5.00;3.72;;;17.10;99.90;;;;;;20905370;28;20029;-50
2021/07/03 06:11:48;;;;;;;3.92;3.50;;;19.00;99.90;;;;;;20922521;28;20033;-51
2021/07/03 06:21:50;;;;;;;4.22;3.80;;;19.30;99.90;;;;;;20920631;28;20060;-51
2021/07/03 06:31:52;;;;;;;3.42;3.10;;;19.30;99.90;;;;;;20919698;28;20075;-48
2021/07/03 06:41:53;;;;;;;6.57;3.80;;;18.90;99.90;;;;;;20919117;28;20037;-49
2021/07/03 06:51:55;;;;;;;3.30;2.83;;;19.10;99.90;;;;;;20918934;28;20324;-52
2021/07/03 07:01:58;;;;;;;7.25;3.40;;;19.80;99.90;;;;;;20917996;28;20086;-48
2021/07/03 07:12:00;;;;;;;4.88;4.00;;;20.50;99.90;;;;;;20916236;28;20082;-52
2021/07/03 07:22:03;;;;;;;4.10;3.70;;;20.70;99.90;;;;;;20915480;28;20037;-51
2021/07/03 07:32:05;;;;;;;2.67;1.98;;;21.30;99.90;;;;;;20914721;28;20040;-52
2021/07/03 07:42:07;;;;;;;3.75;1.90;;;25.50;96.00;;;;;;20914216;28;20053;-52
2021/07/03 07:52:10;;;;;;;3.28;1.67;;;25.70;95.20;;;;;;20912557;28;20494;-52
2021/07/03 08:02:12;;;;;;;1.40;1.30;;;26.40;90.60;;;;;;20910868;28;20071;-50
2021/07/03 08:12:14;;;;;;;6.65;2.55;;;27.30;89.90;;;;;;20912574;28;20462;-50
2021/07/03 08:22:16;;;;;;;9.65;2.70;;;26.90;86.70;;;;;;20910431;28;20033;-52
2021/07/03 08:32:18;;;;;;;4.15;2.40;;;26.60;89.80;;;;;;20908081;28;20398;-50
2021/07/03 08:42:20;;;;;;;4.68;2.20;;;27.20;88.10;;;;;;20910059;28;20374;-51
2021/07/03 08:52:24;;;;;;;4.20;2.58;;;26.30;91.20;;;;;;20908736;28;20037;-49
2021/07/03 09:02:44;;;;;;;2.95;1.80;;;24.40;92.00;;;;;;20908176;28;20040;-51
2021/07/03 09:12:50;;;;;;;5.05;2.00;;;25.40;90.30;;;;;;20825271;28;20040;-52
2021/07/03 09:22:58;;;;;;;3.03;2.00;;;26.00;89.00;;;;;;20824642;28;20025;-48
2021/07/03 09:33:02;;;;;;;3.60;1.98;;;26.20;91.00;;;;;;20823688;28;20049;-49
2021/07/03 09:43:11;;;;;;;3.53;2.50;;;26.50;87.20;;;;;;20889404;28;20591;-52
2021/07/03 09:53:13;;;;;;;5.95;3.10;;;24.50;90.90;;;;;;20905302;28;20041;-52
2021/07/03 10:03:30;;;;;;;4.23;2.43;;;24.70;91.40;;;;;;20904507;28;20536;-49
2021/07/03 10:13:34;;;;;;;6.15;2.78;;;25.20;92.00;;;;;;20904381;28;20029;-51
2021/07/03 10:23:38;;;;;;;4.20;2.90;;;26.10;88.10;;;;;;20904136;28;20102;-50
2021/07/03 10:33:58;;;;;;;3.55;3.20;;;25.30;88.40;;;;;;20903065;28;20121;-51
2021/07/03 10:44:06;;;;;;;6.35;2.70;;;23.60;91.10;;;;;;20902775;28;20049;-51
2021/07/03 10:54:21;;;;;;;6.82;2.70;;;22.70;92.70;;;;;;20893793;28;20095;-49
2021/07/03 11:04:22;;;;;;;6.00;2.55;;;23.80;91.80;;;;;;20917823;28;20370;-51
2021/07/03 11:14:27;;;;;;;3.05;2.20;;;26.20;89.60;;;;;;20917357;28;20029;-51
2021/07/03 11:24:42;;;;;;;3.67;2.25;;;26.30;85.10;;;;;;20916348;28;20619;-51
2021/07/03 11:34:56;;;;;;;7.05;2.53;;;25.50;88.30;;;;;;20915427;28;20036;-49
2021/07/03 11:44:58;;;;;;;2.97;1.83;;;26.90;84.60;;;;;;20914417;28;20033;-49
2021/07/03 11:55:05;;;;;;;4.20;1.90;;;26.60;84.60;;;;;;20914167;28;20041;-48
2021/07/03 12:05:09;;;;;;;3.27;1.70;;;26.60;84.10;;;;;;20912338;28;20071;-49
2021/07/03 12:15:11;;;;;;;3.58;1.60;;;27.30;85.50;;;;;;20912299;28;20459;-50
2021/07/03 12:25:17;;;;;;;2.03;1.80;;;28.30;83.10;;;;;;20911499;28;20033;-49
2021/07/03 12:35:19;;;;;;;10.15;1.75;;;29.80;77.90;;;;;;20910155;28;20033;-51
2021/07/03 12:45:22;;;;;;;2.38;1.58;;;28.80;73.40;;;;;;20909470;28;20102;-50
2021/07/03 12:55:35;;;;;;;3.22;1.85;;;27.50;79.00;;;;;;20908873;28;20037;-50
2021/07/03 13:05:36;;;;;;;2.13;1.63;;;27.40;76.90;;;;;;20907977;28;20029;-48
2021/07/03 13:15:39;;;;;;;2.67;2.25;;;27.30;78.60;;;;;;20906717;28;20059;-52
2021/07/03 13:25:42;;;;;;;3.15;1.70;;;26.40;77.30;;;;;;20906959;28;20090;-49
2021/07/03 13:35:44;;;;;;;1.48;1.27;;;26.80;79.20;;;;;;20905982;28;20098;-53
2021/07/03 13:45:45;;;;;;;1.70;1.48;;;27.80;75.80;;;;;;20905687;28;20048;-52
2021/07/03 13:55:47;;;;;;;1.40;1.20;;;27.30;73.80;;;;;;20905325;28;20044;-52
2021/07/03 14:05:50;;;;;;;1.90;1.67;;;25.80;77.50;;;;;;20904115;28;20033;-50
2021/07/03 14:15:52;;;;;;;1.98;1.77;;;25.60;76.20;;;;;;20904231;28;20436;-51
2021/07/03 14:25:54;;;;;;;2.42;1.60;;;24.70;81.40;;;;;;20909781;28;20032;-50
2021/07/03 14:35:56;;;;;;;2.38;2.17;;;23.50;85.80;;;;;;20919691;28;20339;-50
2021/07/03 14:45:59;;;;;;;3.25;2.08;;;22.40;88.10;;;;;;20918864;28;20094;-51
2021/07/03 14:56:06;;;;;;;6.72;2.10;;;21.60;91.50;;;;;;20916605;28;20477;-51
2021/07/03 15:06:08;;;;;;;10.30;1.75;;;21.20;92.90;;;;;;20917231;28;20051;-51
2021/07/03 15:16:10;;;;;;;4.70;2.13;;;20.80;95.20;;;;;;20913404;28;20036;-54
2021/07/03 15:26:12;;;;;;;3.80;2.70;;;20.90;93.60;;;;;;20914072;28;20087;-50
2021/07/03 15:36:14;;;;;;;2.97;2.30;;;21.00;94.00;;;;;;20914427;28;20032;-52
2021/07/03 15:46:16;;;;;;;9.15;3.78;;;20.80;94.40;;;;;;20914100;28;20049;-52
2021/07/03 15:56:18;;;;;;;5.90;4.25;;;20.60;95.00;;;;;;20911308;28;20037;-54
2021/07/03 16:06:20;;;;;;;9.45;3.78;;;20.20;95.50;;;;;;20913279;28;20112;-51
2021/07/03 16:16:22;;;;;;;4.70;3.05;;;20.20;95.60;;;;;;20912001;28;20425;-50
2021/07/03 16:26:24;;;;;;;5.35;4.68;;;20.20;95.80;;;;;;20911537;28;20086;-52
2021/07/03 16:36:26;;;;;;;6.07;4.55;;;20.40;95.70;;;;;;20908151;28;20033;-53
2021/07/03 16:46:29;;;;;;;4.70;4.10;;;20.60;95.00;;;;;;20908444;28;20037;-49
2021/07/03 16:56:31;;;;;;;4.38;3.42;;;20.60;95.00;;;;;;20908973;28;20086;-54
2021/07/03 17:06:33;;;;;;;4.57;3.83;;;20.50;94.80;;;;;;20909567;28;20090;-52
2021/07/03 17:16:35;;;;;;;6.53;4.22;;;20.20;97.40;;;;;;20905809;28;20041;-48
2021/07/03 17:26:37;;;;;;;5.93;4.55;;;19.80;97.70;;;;;;20905765;28;20037;-48
2021/07/03 17:36:39;;;;;;;7.25;3.90;;;19.20;98.10;;;;;;20906319;28;20561;-49
2021/07/03 17:46:41;;;;;;;4.97;3.60;;;18.90;99.90;;;;;;20905557;28;20049;-49
2021/07/03 17:56:43;;;;;;;6.55;4.00;;;18.70;99.90;;;;;;20905005;28;20036;-50
2021/07/03 18:06:45;;;;;;;5.65;4.57;;;18.60;99.90;;;;;;20904237;28;20045;-51
2021/07/03 18:16:47;;;;;;;7.35;4.90;;;18.30;99.90;;;;;;20904085;28;20044;-49
2021/07/03 18:26:49;;;;;;;5.38;4.47;;;18.00;99.90;;;;;;20903964;28;20037;-50
2021/07/03 18:36:51;;;;;;;5.28;4.50;;;17.50;99.90;;;;;;20903596;28;20025;-49
2021/07/03 18:46:53;;;;;;;4.80;3.75;;;17.00;99.90;;;;;;20902998;28;20343;-49
2021/07/03 18:56:55;;;;;;;7.35;4.63;;;16.70;99.90;;;;;;20902995;28;20552;-49
2021/07/03 19:06:56;;;;;;;5.93;4.57;;;16.30;99.90;;;;;;20902843;28;20060;-49
2021/07/03 19:16:59;;;;;;;5.10;2.85;;;16.10;99.90;;;;;;20913381;28;20067;-48
2021/07/03 19:27:02;;;;;;;4.03;3.60;;;15.80;99.90;;;;;;20915731;28;20037;-48
2021/07/03 19:37:04;;;;;;;5.03;3.30;;;15.50;99.90;;;;;;20915333;28;20029;-49
2021/07/03 19:47:06;;;;;;;7.45;3.17;;;15.40;99.90;;;;;;20914600;28;20041;-48
2021/07/03 19:57:08;;;;;;;4.40;2.75;;;15.40;99.90;;;;;;20913955;28;20029;-49
2021/07/03 20:07:17;;;;;;;6.70;2.70;;;15.30;99.90;;;;;;20912592;28;20059;-48
2021/07/03 20:17:19;;;;;;;3.50;3.15;;;15.40;99.90;;;;;;20911931;28;20533;-52
2021/07/03 20:27:21;;;;;;;5.38;2.72;;;15.40;99.90;;;;;;20910939;28;20029;-48
2021/07/03 20:37:22;;;;;;;1.92;1.42;;;15.30;99.90;;;;;;20910381;28;20025;-48
2021/07/03 20:47:24;;;;;;;3.75;2.75;;;15.40;99.90;;;;;;20909026;28;20053;-49
2021/07/03 20:57:32;;;;;;;8.52;4.60;;;15.70;99.90;;;;;;20908998;28;20037;-50
2021/07/03 21:07:34;;;;;;;7.50;5.72;;;15.60;99.90;;;;;;20907845;28;20036;-48
2021/07/03 21:17:36;;;;;;;12.48;9.30;;;15.40;99.90;;;;;;20907327;28;20339;-52
2021/07/03 21:27:39;;;;;;;12.93;10.70;;;15.30;99.90;;;;;;20906793;28;20025;-50
2021/07/03 21:37:41;;;;;;;16.60;12.63;;;15.10;99.90;;;;;;20906574;28;20037;-52
2021/07/03 21:47:44;;;;;;;18.20;16.10;;;15.00;99.90;;;;;;20905450;28;20037;-50
2021/07/03 21:57:46;;;;;;;19.73;15.82;;;14.90;99.90;;;;;;20904857;28;20083;-51
2021/07/03 22:07:47;;;;;;;18.20;16.17;;;14.70;99.90;;;;;;20904985;28;20029;-50
2021/07/03 22:17:50;;;;;;;10.73;8.77;;;14.70;99.90;;;;;;20904005;28;20037;-49
2021/07/03 22:27:54;;;;;;;6.88;5.97;;;14.70;99.90;;;;;;20903647;28;20067;-55
2021/07/03 22:37:56;;;;;;;7.57;6.72;;;14.60;99.90;;;;;;20903516;28;20033;-52
2021/07/03 22:47:58;;;;;;;9.65;8.10;;;14.40;99.90;;;;;;20909076;28;20561;-52
2021/07/03 22:58:01;;;;;;;11.73;7.50;;;14.30;99.90;;;;;;20919372;28;20528;-52
2021/07/03 23:08:04;;;;;;;9.93;8.30;;;14.20;99.90;;;;;;20917779;28;20087;-52
2021/07/03 23:18:15;;;;;;;14.18;11.65;;;14.20;99.90;;;;;;20918118;28;20024;-53
2021/07/03 23:28:21;;;;;;;14.65;13.02;;;14.10;99.90;;;;;;20916379;28;20033;-53
2021/07/03 23:38:23;;;;;;;20.27;15.60;;;13.90;99.90;;;;;;20915535;28;20090;-51
2021/07/03 23:48:25;;;;;;;19.27;16.38;;;13.80;99.90;;;;;;20914560;28;20045;-53
2021/07/03 23:58:27;;;;;;;18.27;14.75;;;13.80;99.90;;;;;;20913290;28;20029;-48
